Time;durP1;ratioP1;P1;durP2;ratioP2;P2;SDS_P1;SDS_P2;PMS_P1;PMS_P2;Temp;Humidity;BMP_temperature;BMP_pressure;BME280_temperature;BME280_humidity;BME280_pressure;Samples;Min_cycle;Max_cycle;Signal;HPM_P1;HPM_P2
2021/03/16 00:02:12;;;;;;;6.40;5.80;;;;;;;4.61;85.54;95451.44;4995383;28;20235;-84
2021/03/16 00:04:38;;;;;;;7.20;6.50;;;;;;;4.63;86.01;95449.53;5014918;28;20285;-84
2021/03/16 00:07:05;;;;;;;6.87;5.90;;;;;;;4.56;86.10;95451.06;5015674;28;20229;-86
2021/03/16 00:09:31;;;;;;;6.57;5.97;;;;;;;4.44;87.01;95455.53;4996424;28;20227;-86
2021/03/16 00:11:57;;;;;;;8.27;6.23;;;;;;;4.53;87.15;95454.69;5014364;28;20581;-85
2021/03/16 00:14:24;;;;;;;7.23;6.53;;;;;;;4.60;86.56;95465.94;4998202;28;20282;-85
2021/03/16 00:16:51;;;;;;;6.20;5.60;;;;;;;4.59;86.74;95464.34;4996152;28;20235;-85
2021/03/16 00:19:17;;;;;;;7.67;6.37;;;;;;;4.65;86.73;95465.50;5011564;28;20671;-85
2021/03/16 00:21:43;;;;;;;6.87;6.17;;;;;;;4.67;86.35;95466.16;4998233;28;20281;-85
2021/03/16 00:24:09;;;;;;;7.37;6.20;;;;;;;4.58;86.63;95472.94;5010963;28;20263;-85
2021/03/16 00:26:35;;;;;;;7.60;6.47;;;;;;;4.65;86.92;95468.03;5013576;28;20210;-85
2021/03/16 00:29:01;;;;;;;6.77;6.07;;;;;;;4.62;86.77;95478.56;4994096;28;20243;-84
2021/03/16 00:31:27;;;;;;;8.00;6.60;;;;;;;4.59;88.14;95486.47;5008419;28;20234;-84
2021/03/16 00:33:54;;;;;;;7.37;6.23;;;;;;;4.60;87.29;95483.78;5013630;28;20222;-84
2021/03/16 00:36:20;;;;;;;7.50;6.27;;;;;;;4.53;87.92;95487.03;5014492;28;20225;-86
2021/03/16 00:38:47;;;;;;;7.13;6.43;;;;;;;4.59;87.38;95494.13;5009915;28;20191;-85
2021/03/16 00:41:12;;;;;;;6.70;6.10;;;;;;;4.60;87.40;95488.09;5001809;28;20234;-85
2021/03/16 00:43:38;;;;;;;7.17;6.47;;;;;;;4.60;87.57;95485.53;5004378;28;20250;-85
2021/03/16 00:46:04;;;;;;;7.10;6.40;;;;;;;4.57;87.75;95496.81;5013258;28;20321;-85
2021/03/16 00:48:31;;;;;;;7.00;6.37;;;;;;;4.62;87.96;95499.72;5004058;28;20310;-83
2021/03/16 00:50:58;;;;;;;7.00;6.27;;;;;;;4.59;88.11;95507.69;5002480;28;20226;-85
2021/03/16 00:53:24;;;;;;;6.73;6.13;;;;;;;4.51;88.72;95499.91;5005281;28;20682;-84
2021/03/16 00:55:50;;;;;;;7.57;6.50;;;;;;;4.57;87.82;95499.38;5001030;28;20265;-86
2021/03/16 00:58:23;;;;;;;7.27;6.40;;;;;;;4.55;88.57;95491.06;5013648;28;20603;-85
2021/03/16 01:00:49;;;;;;;7.00;6.27;;;;;;;4.58;88.21;95500.97;5005491;28;20223;-85
2021/03/16 01:03:15;;;;;;;6.90;6.20;;;;;;;4.58;87.86;95503.53;4996883;28;20254;-85
2021/03/16 01:05:41;;;;;;;6.73;5.50;;;;;;;4.50;87.91;95494.03;5014060;28;20223;-84
2021/03/16 01:08:08;;;;;;;6.50;5.80;;;;;;;4.57;87.49;95501.91;4999038;28;20224;-85
2021/03/16 01:10:34;;;;;;;6.77;6.00;;;;;;;4.57;87.72;95496.00;4997003;28;20219;-83
2021/03/16 01:13:00;;;;;;;6.53;5.40;;;;;;;4.53;88.28;95505.69;5007269;28;20226;-83
2021/03/16 01:15:26;;;;;;;6.40;5.77;;;;;;;4.50;88.47;95511.88;4994208;28;20988;-84
2021/03/16 01:17:52;;;;;;;5.83;5.33;;;;;;;4.56;87.99;95502.06;5010705;28;20199;-84
2021/03/16 01:20:21;;;;;;;6.00;5.40;;;;;;;4.55;88.08;95508.09;5011486;28;20705;-83
2021/03/16 01:22:47;;;;;;;6.37;5.33;;;;;;;4.61;87.61;95510.88;4996042;28;20227;-85
2021/03/16 01:25:14;;;;;;;7.20;6.03;;;;;;;4.65;87.47;95511.38;5012208;28;20222;-84
2021/03/16 01:27:40;;;;;;;6.67;5.67;;;;;;;4.64;87.34;95514.88;4992762;28;20231;-84
2021/03/16 01:30:08;;;;;;;6.60;5.40;;;;;;;4.60;86.97;95508.47;5009385;28;20257;-85
2021/03/16 01:32:34;;;;;;;6.70;6.10;;;;;;;4.59;86.98;95511.97;5011294;28;20226;-86
2021/03/16 01:35:02;;;;;;;8.60;6.23;;;;;;;4.61;87.01;95515.19;4993264;28;20231;-85
2021/03/16 01:37:28;;;;;;;6.10;5.60;;;;;;;4.65;86.74;95513.94;4993000;28;20258;-85
2021/03/16 01:39:54;;;;;;;6.13;5.63;;;;;;;4.68;86.39;95516.22;5012454;28;20329;-84
2021/03/16 01:42:21;;;;;;;6.73;6.00;;;;;;;4.64;86.75;95512.31;4996143;28;20231;-84
2021/03/16 01:44:47;;;;;;;6.53;5.77;;;;;;;4.64;86.22;95510.59;5012512;28;20195;-85
2021/03/16 01:47:15;;;;;;;7.40;6.43;;;;;;;4.58;86.83;95515.47;4997342;28;20711;-84
2021/03/16 01:49:42;;;;;;;6.43;5.27;;;;;;;4.56;86.71;95517.34;4992661;28;20301;-83
2021/03/16 01:52:09;;;;;;;6.90;6.07;;;;;;;4.51;86.58;95515.22;5006877;28;20227;-84
2021/03/16 01:54:36;;;;;;;7.83;5.93;;;;;;;4.52;87.53;95519.38;4994936;28;20227;-84
2021/03/16 01:57:03;;;;;;;6.70;5.87;;;;;;;4.59;87.78;95519.63;5006181;28;20246;-84
2021/03/16 01:59:31;;;;;;;7.40;6.30;;;;;;;4.55;86.31;95519.09;5013024;28;20721;-85
2021/03/16 02:01:57;;;;;;;10.23;6.50;;;;;;;4.51;86.43;95523.66;5009627;28;20234;-85
2021/03/16 02:04:27;;;;;;;8.17;5.97;;;;;;;4.60;86.55;95522.03;4996955;28;20235;-86
2021/03/16 02:06:57;;;;;;;7.10;5.63;;;;;;;4.51;86.51;95523.66;5003433;28;20226;-83
2021/03/16 02:09:31;;;;;;;6.30;5.67;;;;;;;4.61;85.70;95528.75;5012074;28;20265;-83
2021/03/16 02:12:02;;;;;;;6.70;6.10;;;;;;;4.58;85.51;95523.91;5000775;28;20269;-83
2021/03/16 02:14:33;;;;;;;7.17;6.00;;;;;;;4.56;85.66;95525.00;5008063;28;20198;-84
2021/03/16 02:17:05;;;;;;;9.23;5.87;;;;;;;4.60;85.89;95521.22;5000532;28;20219;-84
2021/03/16 02:19:58;;;;;;;8.97;6.27;;;;;;;4.57;85.72;95532.50;4999025;28;20222;-85
2021/03/16 02:22:29;;;;;;;9.27;6.77;;;;;;;4.57;85.77;95536.81;4996854;28;20744;-85
2021/03/16 02:25:07;;;;;;;8.40;6.07;;;;;;;4.48;86.06;95525.69;5011533;28;20218;-85
2021/03/16 02:27:46;;;;;;;9.03;5.97;;;;;;;4.47;85.69;95529.97;4999223;28;20219;-83
2021/03/16 02:30:17;;;;;;;6.80;5.80;;;;;;;4.57;85.26;95541.91;4991916;28;20265;-84
2021/03/16 02:32:44;;;;;;;7.83;6.07;;;;;;;4.56;85.55;95542.84;5001325;28;20219;-83
2021/03/16 02:35:12;;;;;;;10.23;6.60;;;;;;;4.61;84.82;95528.75;5011812;28;20230;-83
2021/03/16 02:37:41;;;;;;;8.87;6.80;;;;;;;4.56;85.24;95538.53;4995969;28;20261;-85
2021/03/16 02:40:09;;;;;;;8.30;5.93;;;;;;;4.51;85.13;95533.88;4991773;28;20215;-85
2021/03/16 02:42:35;;;;;;;7.63;6.00;;;;;;;4.54;84.33;95540.44;5006656;28;20717;-83
2021/03/16 02:45:04;;;;;;;9.37;6.20;;;;;;;4.55;84.98;95541.25;4993299;28;20195;-83
2021/03/16 02:47:31;;;;;;;7.43;6.20;;;;;;;4.48;84.54;95543.53;5006599;28;20195;-85
2021/03/16 02:49:58;;;;;;;8.27;6.00;;;;;;;4.54;84.34;95539.63;5011659;28;20231;-83
2021/03/16 02:52:25;;;;;;;7.77;5.97;;;;;;;4.48;85.05;95548.63;4998195;28;20235;-84
2021/03/16 02:54:54;;;;;;;8.87;6.47;;;;;;;4.50;84.23;95559.50;5009449;28;20226;-83
2021/03/16 02:57:22;;;;;;;9.80;5.73;;;;;;;4.59;84.33;95557.88;5011853;28;20717;-84
2021/03/16 02:59:50;;;;;;;7.53;6.13;;;;;;;4.51;83.81;95554.25;5011825;28;20206;-86
2021/03/16 03:02:17;;;;;;;8.00;5.90;;;;;;;4.55;84.29;95554.78;5011598;28;20284;-83
2021/03/16 03:04:46;;;;;;;7.87;6.47;;;;;;;4.64;84.22;95559.03;5011624;28;20300;-85
2021/03/16 03:07:13;;;;;;;7.00;5.73;;;;;;;4.62;83.50;95558.38;5010969;28;20260;-83
2021/03/16 03:09:39;;;;;;;6.87;6.07;;;;;;;4.60;83.22;95560.28;4991762;28;20226;-84
2021/03/16 03:12:07;;;;;;;7.83;6.20;;;;;;;4.61;83.55;95559.34;4991366;28;20223;-84
2021/03/16 03:14:34;;;;;;;10.50;6.93;;;;;;;4.68;83.26;95560.34;4992158;28;20212;-83
2021/03/16 03:17:01;;;;;;;6.73;6.03;;;;;;;4.66;83.19;95562.25;4990768;28;20282;-84
2021/03/16 03:19:27;;;;;;;8.80;5.80;;;;;;;4.68;82.77;95565.47;5007912;28;20230;-85
2021/03/16 03:22:01;;;;;;;8.13;5.90;;;;;;;4.53;83.35;95568.63;5010460;28;20230;-84
2021/03/16 03:24:31;;;;;;;9.13;6.40;;;;;;;4.55;83.76;95574.38;4993439;28;20230;-85
2021/03/16 03:27:02;;;;;;;8.93;6.17;;;;;;;4.63;83.37;95577.00;4991966;28;20203;-85
2021/03/16 03:29:29;;;;;;;6.23;5.57;;;;;;;4.59;82.91;95583.38;5009559;28;20198;-83
2021/03/16 03:31:57;;;;;;;8.97;6.40;;;;;;;4.63;83.52;95585.47;5011553;28;20234;-85
2021/03/16 03:34:24;;;;;;;8.53;6.10;;;;;;;4.62;83.46;95581.31;5010533;28;20227;-83
2021/03/16 03:36:52;;;;;;;8.70;6.27;;;;;;;4.60;84.19;95585.78;5010784;28;20226;-83
2021/03/16 03:39:21;;;;;;;8.13;6.60;;;;;;;4.55;83.40;95584.56;4995152;28;20230;-84
2021/03/16 03:41:49;;;;;;;8.67;6.47;;;;;;;4.61;83.68;95591.69;5011815;28;20284;-85
2021/03/16 03:44:16;;;;;;;8.77;6.27;;;;;;;4.58;83.69;95587.66;5009174;28;20230;-83
2021/03/16 03:46:44;;;;;;;8.80;6.50;;;;;;;4.51;84.13;95586.59;5010000;28;20237;-84
2021/03/16 03:49:11;;;;;;;8.07;6.47;;;;;;;4.61;84.04;95599.31;4995188;28;20282;-85
2021/03/16 03:51:39;;;;;;;7.50;6.03;;;;;;;4.59;84.53;95601.22;5001031;28;20313;-85
2021/03/16 03:54:06;;;;;;;10.67;6.20;;;;;;;4.61;84.16;95602.69;4995929;28;20212;-83
2021/03/16 03:56:35;;;;;;;8.83;6.13;;;;;;;4.61;84.43;95609.53;4999937;28;20199;-84
2021/03/16 03:59:03;;;;;;;8.23;6.50;;;;;;;4.57;84.09;95603.91;5009968;28;20234;-83
2021/03/16 04:01:31;;;;;;;7.87;5.43;;;;;;;4.48;85.05;95602.16;5001970;28;20234;-83
2021/03/16 04:03:57;;;;;;;6.80;5.90;;;;;;;4.45;84.38;95613.44;5003294;28;20230;-83
2021/03/16 04:06:24;;;;;;;6.53;5.80;;;;;;;4.45;83.78;95615.97;4992356;28;20753;-85
2021/03/16 04:08:51;;;;;;;6.63;5.93;;;;;;;4.42;84.40;95616.28;4991560;28;20344;-85
2021/03/16 04:11:18;;;;;;;7.10;5.97;;;;;;;4.39;84.37;95613.19;5007535;28;20253;-85
2021/03/16 04:13:46;;;;;;;6.43;5.77;;;;;;;4.48;83.55;95617.47;4999640;28;20223;-85
2021/03/16 04:16:12;;;;;;;9.33;5.70;;;;;;;4.38;83.04;95622.59;4992358;28;20235;-84
2021/03/16 04:18:38;;;;;;;6.70;5.90;;;;;;;4.36;83.81;95623.66;5011773;28;20819;-83
2021/03/16 04:21:05;;;;;;;8.70;6.13;;;;;;;4.39;83.45;95618.31;5013633;28;20887;-84
2021/03/16 04:23:32;;;;;;;7.93;5.93;;;;;;;4.30;83.40;95627.56;5003708;28;20203;-84
2021/03/16 04:25:58;;;;;;;8.63;6.27;;;;;;;4.41;82.95;95624.06;5010575;28;20223;-85
2021/03/16 04:28:25;;;;;;;9.10;6.17;;;;;;;4.41;83.27;95629.16;4999005;28;20748;-84
2021/03/16 04:30:52;;;;;;;8.30;5.87;;;;;;;4.43;82.99;95632.34;5011501;28;20231;-83
2021/03/16 04:33:19;;;;;;;9.67;6.10;;;;;;;4.43;83.30;95634.91;5006730;28;20238;-84
2021/03/16 04:35:45;;;;;;;8.80;6.23;;;;;;;4.40;83.03;95635.22;5014480;28;20199;-83
2021/03/16 04:38:11;;;;;;;7.70;6.37;;;;;;;4.37;83.00;95640.56;4997614;28;20227;-85
2021/03/16 04:40:38;;;;;;;9.27;6.47;;;;;;;4.39;83.46;95631.84;5004530;28;20226;-85
2021/03/16 04:43:04;;;;;;;7.73;5.70;;;;;;;4.40;83.56;95642.84;5015494;28;20229;-85
2021/03/16 04:45:30;;;;;;;8.53;6.00;;;;;;;4.48;82.48;95641.19;5015180;28;20223;-85
2021/03/16 04:47:57;;;;;;;8.53;5.63;;;;;;;4.48;83.25;95653.94;5013953;28;20283;-85
2021/03/16 04:50:24;;;;;;;14.10;6.43;;;;;;;4.52;81.96;95657.03;4997827;28;20255;-85
2021/03/16 04:52:50;;;;;;;6.87;5.83;;;;;;;4.38;82.92;95650.63;5005377;28;20226;-85
2021/03/16 04:55:16;;;;;;;7.20;5.53;;;;;;;4.36;83.11;95655.06;4997312;28;20231;-85
2021/03/16 04:57:42;;;;;;;10.23;6.13;;;;;;;4.36;83.48;95652.50;4997531;28;20220;-86
2021/03/16 05:00:10;;;;;;;10.17;5.93;;;;;;;4.38;82.44;95660.81;4994955;28;20257;-85
2021/03/16 05:02:36;;;;;;;9.40;5.80;;;;;;;4.33;82.61;95664.72;5004132;28;20280;-85
2021/03/16 05:05:03;;;;;;;7.60;5.40;;;;;;;4.42;82.62;95658.81;5013776;28;20223;-86
2021/03/16 05:07:29;;;;;;;7.30;5.17;;;;;;;4.44;82.10;95670.44;4996330;28;20254;-85
2021/03/16 05:09:55;;;;;;;10.63;5.87;;;;;;;4.38;82.62;95667.66;5000728;28;20608;-86
2021/03/16 05:12:21;;;;;;;9.43;5.40;;;;;;;4.44;82.99;95669.66;5012372;28;20317;-85
2021/03/16 05:14:48;;;;;;;7.07;5.00;;;;;;;4.46;81.83;95668.56;5016104;28;20455;-85
2021/03/16 05:17:14;;;;;;;10.30;5.40;;;;;;;4.37;81.79;95673.69;4999904;28;20245;-86
2021/03/16 05:19:40;;;;;;;5.93;4.80;;;;;;;4.40;81.90;95676.78;5011684;28;20227;-86
2021/03/16 05:22:07;;;;;;;8.17;5.57;;;;;;;4.34;82.37;95684.16;5000681;28;20778;-86
2021/03/16 05:24:33;;;;;;;6.03;4.50;;;;;;;4.30;81.86;95682.81;4994792;28;20227;-86
2021/03/16 05:26:59;;;;;;;7.67;5.30;;;;;;;4.34;82.30;95684.16;5007106;28;20237;-85
2021/03/16 05:29:25;;;;;;;8.10;5.07;;;;;;;4.37;81.85;95697.44;5000005;28;20208;-86
2021/03/16 05:31:51;;;;;;;11.20;5.30;;;;;;;4.42;81.88;95689.41;5005930;28;20230;-86
2021/03/16 05:34:17;;;;;;;10.13;5.50;;;;;;;4.38;81.62;95691.41;5014154;28;20223;-86
2021/03/16 05:36:43;;;;;;;7.53;4.97;;;;;;;4.43;81.73;95701.19;5010833;28;20227;-86
2021/03/16 05:39:10;;;;;;;8.60;5.00;;;;;;;4.38;81.48;95701.59;5002782;28;20219;-85
2021/03/16 05:41:37;;;;;;;7.70;4.87;;;;;;;4.33;81.38;95697.84;5007595;28;20218;-86
2021/03/16 05:44:05;;;;;;;8.50;4.90;;;;;;;4.37;81.67;95701.75;5013208;28;20226;-86
2021/03/16 05:46:31;;;;;;;9.57;5.10;;;;;;;4.29;81.83;95706.69;5002093;28;20223;-85
2021/03/16 05:49:03;;;;;;;6.93;4.90;;;;;;;4.27;82.38;95709.38;5003908;28;20236;-86
2021/03/16 05:51:29;;;;;;;7.53;4.60;;;;;;;4.32;81.99;95707.25;5012685;28;20230;-86
2021/03/16 05:53:56;;;;;;;7.27;4.47;;;;;;;4.36;81.68;95710.31;5001535;28;20195;-86
2021/03/16 05:56:23;;;;;;;8.83;5.33;;;;;;;4.38;81.31;95713.53;4993865;28;20203;-85
2021/03/16 05:58:49;;;;;;;9.20;4.70;;;;;;;4.35;81.20;95719.72;5004111;28;20252;-85
2021/03/16 06:01:16;;;;;;;6.80;4.93;;;;;;;4.37;81.52;95717.03;5013235;28;20239;-85
2021/03/16 06:03:42;;;;;;;6.93;4.97;;;;;;;4.43;80.98;95727.47;5013998;28;20222;-85
2021/03/16 06:06:09;;;;;;;7.23;5.20;;;;;;;4.40;81.59;95734.63;5012949;28;20225;-85
2021/03/16 06:08:35;;;;;;;7.73;5.13;;;;;;;4.44;83.23;95729.09;5013759;28;20229;-86
2021/03/16 06:11:02;;;;;;;9.50;5.20;;;;;;;4.56;84.00;95723.84;5009228;28;20223;-86
2021/03/16 06:13:28;;;;;;;7.87;4.60;;;;;;;4.43;80.66;95726.66;5011219;28;20292;-87
2021/03/16 06:15:55;;;;;;;7.67;4.50;;;;;;;4.41;80.68;95736.22;5010579;28;20305;-86
2021/03/16 06:18:26;;;;;;;13.17;7.47;;;;;;;4.40;81.54;95735.41;5011145;28;20273;-85
2021/03/16 06:20:59;;;;;;;9.83;5.10;;;;;;;4.41;81.77;95738.78;5010177;28;20576;-84
2021/03/16 06:23:30;;;;;;;7.83;4.70;;;;;;;4.42;81.64;95741.19;5010630;28;20292;-86
2021/03/16 06:25:56;;;;;;;7.80;5.00;;;;;;;4.46;80.87;95745.06;5010756;28;20226;-83
2021/03/16 06:28:22;;;;;;;8.70;4.87;;;;;;;4.41;81.22;95746.41;5010621;28;20698;-86
2021/03/16 06:30:49;;;;;;;9.03;5.00;;;;;;;4.45;81.03;95756.19;5010496;28;20281;-85
2021/03/16 06:33:18;;;;;;;10.77;5.00;;;;;;;4.34;81.81;95763.19;5010815;28;20234;-85
2021/03/16 06:35:56;;;;;;;7.93;4.63;;;;;;;4.31;81.78;95764.25;5010716;28;20199;-86
2021/03/16 06:38:22;;;;;;;7.23;4.97;;;;;;;4.44;82.07;95761.41;5011268;28;20218;-85
2021/03/16 06:40:48;;;;;;;9.13;4.80;;;;;;;4.34;82.17;95776.72;5009572;28;20634;-85
2021/03/16 06:43:14;;;;;;;7.37;5.30;;;;;;;4.36;82.73;95764.66;5011603;28;20644;-82
2021/03/16 06:45:40;;;;;;;10.63;5.93;;;;;;;4.29;83.20;95778.84;5011027;28;20229;-83
2021/03/16 06:48:17;;;;;;;7.03;4.53;;;;;;;4.32;83.56;95785.44;5010657;28;20206;-86
2021/03/16 06:50:44;;;;;;;7.80;4.27;;;;;;;4.32;83.76;95788.78;5011545;28;20952;-86
2021/03/16 06:53:14;;;;;;;6.00;5.03;;;;;;;4.24;83.78;95793.75;5010766;28;20230;-84
2021/03/16 06:55:51;;;;;;;5.93;4.50;;;;;;;4.16;84.56;95791.88;5010612;28;20655;-82
2021/03/16 06:58:17;;;;;;;7.40;4.17;;;;;;;4.23;84.31;95804.09;5009545;28;20234;-86
2021/03/16 07:00:43;;;;;;;15.47;5.20;;;;;;;4.27;84.47;95807.97;5009684;28;20226;-85
2021/03/16 07:03:16;;;;;;;6.90;4.63;;;;;;;4.20;84.21;95806.91;5004581;28;20277;-86
2021/03/16 07:05:44;;;;;;;5.90;4.50;;;;;;;4.19;84.47;95816.28;5007812;28;20214;-85
2021/03/16 07:08:13;;;;;;;5.07;4.10;;;;;;;4.15;85.43;95825.94;5009858;28;20615;-83
2021/03/16 07:10:40;;;;;;;7.00;4.57;;;;;;;4.05;85.94;95822.53;5009120;28;20242;-85
2021/03/16 07:13:06;;;;;;;5.63;4.43;;;;;;;4.10;86.12;95827.25;5009377;28;20218;-85
2021/03/16 07:15:33;;;;;;;8.87;4.80;;;;;;;4.15;85.91;95836.13;5010853;28;20289;-84
2021/03/16 07:18:00;;;;;;;7.23;4.00;;;;;;;4.17;85.71;95836.00;5011313;28;20214;-86
2021/03/16 07:20:33;;;;;;;7.17;4.50;;;;;;;4.31;85.08;95830.50;5011749;28;20250;-85
2021/03/16 07:23:02;;;;;;;7.17;4.53;;;;;;;4.44;84.45;95840.44;5011860;28;20284;-85
2021/03/16 07:25:28;;;;;;;5.10;3.77;;;;;;;4.41;84.32;95843.28;5010768;28;20233;-84
2021/03/16 07:27:54;;;;;;;6.23;4.60;;;;;;;4.52;84.13;95832.94;5012003;28;20238;-85
2021/03/16 07:30:21;;;;;;;6.93;4.37;;;;;;;4.38;84.32;95841.81;5011327;28;20233;-81
2021/03/16 07:32:47;;;;;;;17.63;11.87;;;;;;;4.36;84.61;95845.41;5012077;28;20231;-85
2021/03/16 07:35:14;;;;;;;5.83;4.30;;;;;;;4.61;91.39;95844.13;5012358;28;20227;-84
2021/03/16 07:37:41;;;;;;;4.53;3.90;;;;;;;4.63;86.22;95843.00;5012349;28;20659;-83
2021/03/16 07:40:09;;;;;;;5.70;3.53;;;;;;;4.95;95.99;95847.84;5011779;28;20229;-83
2021/03/16 07:42:36;;;;;;;5.53;3.83;;;;;;;5.11;91.51;95849.84;5012162;28;20231;-83
2021/03/16 07:45:03;;;;;;;4.07;3.63;;;;;;;5.03;83.06;95853.06;5011814;28;20238;-85
2021/03/16 07:47:35;;;;;;;3.93;3.37;;;;;;;5.05;82.24;95852.94;5012689;28;20214;-83
2021/03/16 07:50:04;;;;;;;5.37;3.80;;;;;;;4.81;81.83;95850.81;5010482;28;20230;-84
2021/03/16 07:52:30;;;;;;;6.70;4.03;;;;;;;4.70;83.89;95856.84;5011352;28;20231;-86
2021/03/16 07:54:57;;;;;;;5.10;4.10;;;;;;;4.65;83.43;95865.81;5014930;28;20227;-84
2021/03/16 07:57:27;;;;;;;5.83;3.90;;;;;;;4.57;84.87;95866.50;5014451;28;20230;-83
2021/03/16 07:59:58;;;;;;;4.90;3.83;;;;;;;4.45;83.65;95878.56;5014337;28;20745;-85
2021/03/16 08:02:28;;;;;;;5.20;4.00;;;;;;;4.47;84.28;95876.69;5014084;28;20590;-85
2021/03/16 08:04:54;;;;;;;5.97;4.13;;;;;;;4.53;84.17;95874.56;5014867;28;20223;-84
2021/03/16 08:07:22;;;;;;;7.87;3.93;;;;;;;4.50;85.00;95881.53;5014408;28;20227;-85
2021/03/16 08:09:50;;;;;;;4.30;3.83;;;;;;;4.60;84.32;95886.66;5013682;28;20226;-86
2021/03/16 08:12:20;;;;;;;5.73;4.03;;;;;;;4.64;84.67;95890.53;5014196;28;20242;-84
2021/03/16 08:14:46;;;;;;;8.53;4.67;;;;;;;4.63;83.95;95893.19;5014796;28;20214;-82
2021/03/16 08:17:12;;;;;;;6.57;4.30;;;;;;;4.59;85.42;95891.88;5014127;28;20234;-84
2021/03/16 08:19:39;;;;;;;9.43;4.50;;;;;;;4.67;85.25;95890.25;5013570;28;20226;-86
2021/03/16 08:22:05;;;;;;;6.13;4.00;;;;;;;4.80;84.46;95883.19;5013474;28;20249;-84
2021/03/16 08:24:36;;;;;;;6.13;4.20;;;;;;;4.70;84.41;95895.09;5013522;28;20230;-82
2021/03/16 08:27:02;;;;;;;6.17;4.20;;;;;;;4.77;83.58;95892.84;5013220;28;20198;-86
2021/03/16 08:29:31;;;;;;;26.50;20.57;;;;;;;4.89;83.09;95898.59;5012631;28;20203;-86
2021/03/16 08:31:58;;;;;;;11.73;8.03;;;;;;;4.87;82.53;95893.63;5012497;28;20226;-85
2021/03/16 08:34:26;;;;;;;6.50;4.57;;;;;;;4.90;82.84;95906.13;5013979;28;20234;-85
2021/03/16 08:36:52;;;;;;;9.17;4.60;;;;;;;4.79;82.82;95912.19;5013548;28;20253;-82
2021/03/16 08:39:19;;;;;;;6.57;4.57;;;;;;;4.76;81.80;95916.72;5013723;28;20234;-85
2021/03/16 08:41:53;;;;;;;6.43;4.40;;;;;;;4.84;82.59;95911.75;5013785;28;20745;-84
2021/03/16 08:44:19;;;;;;;6.23;4.47;;;;;;;4.92;83.25;95906.81;5013582;28;20338;-84
2021/03/16 08:46:46;;;;;;;6.67;4.70;;;;;;;5.01;82.12;95910.28;5013232;28;21022;-85
2021/03/16 08:49:15;;;;;;;6.07;3.93;;;;;;;5.10;82.10;95917.16;5012261;28;20227;-83
2021/03/16 08:51:41;;;;;;;6.90;4.33;;;;;;;5.06;81.10;95908.13;5012237;28;20237;-84
2021/03/16 08:54:08;;;;;;;6.60;4.17;;;;;;;5.12;80.64;95930.59;5013749;28;20286;-83
2021/03/16 08:56:33;;;;;;;7.20;3.70;;;;;;;5.14;80.31;95918.50;5012644;28;20625;-82
2021/03/16 08:59:03;;;;;;;6.00;4.13;;;;;;;5.23;79.17;95922.78;5012929;28;20280;-85
2021/03/16 09:01:30;;;;;;;5.73;3.90;;;;;;;5.25;79.09;95913.25;5012085;28;20256;-86
2021/03/16 09:04:08;;;;;;;4.60;3.73;;;;;;;5.31;78.16;95922.09;5012031;28;20298;-82
2021/03/16 09:06:34;;;;;;;5.10;3.63;;;;;;;5.28;77.38;95922.38;5012570;28;20222;-85
2021/03/16 09:09:00;;;;;;;8.60;3.93;;;;;;;5.42;78.10;95914.28;5012279;28;20203;-86
2021/03/16 09:11:31;;;;;;;6.70;4.30;;;;;;;5.47;78.56;95923.16;5013584;28;20226;-84
2021/03/16 09:14:11;;;;;;;5.43;3.43;;;;;;;5.45;78.38;95937.00;5012497;28;20227;-85
2021/03/16 09:16:42;;;;;;;6.37;3.50;;;;;;;5.43;76.09;95924.38;5012888;28;20620;-83
2021/03/16 09:19:11;;;;;;;16.27;11.10;;;;;;;5.31;74.73;95927.22;5014189;28;20223;-85
2021/03/16 09:21:47;;;;;;;4.23;3.23;;;;;;;5.36;78.40;95932.72;4993658;28;20234;-84
2021/03/16 09:24:13;;;;;;;6.83;3.43;;;;;;;5.45;77.13;95944.66;4994276;28;20211;-81
2021/03/16 09:26:40;;;;;;;5.00;3.40;;;;;;;5.49;75.96;95928.94;4993595;28;20203;-81
2021/03/16 09:29:06;;;;;;;4.30;3.47;;;;;;;5.44;76.39;95938.75;4993603;28;20620;-83
2021/03/16 09:31:33;;;;;;;5.10;3.67;;;;;;;5.51;76.94;95946.69;4993102;28;20235;-84
2021/03/16 09:33:59;;;;;;;5.13;3.23;;;;;;;5.51;76.37;95952.59;4993307;28;20231;-82
2021/03/16 09:36:29;;;;;;;6.17;4.07;;;;;;;5.49;76.47;95951.13;4992998;28;20281;-84
2021/03/16 09:38:56;;;;;;;5.53;3.20;;;;;;;5.48;76.45;95945.22;4993224;28;20199;-85
2021/03/16 09:41:22;;;;;;;6.37;3.67;;;;;;;5.43;76.21;95947.34;4993022;28;20233;-86
2021/03/16 09:43:49;;;;;;;7.83;3.83;;;;;;;5.52;76.36;95954.22;4992379;28;20254;-83
2021/03/16 09:46:15;;;;;;;3.60;3.30;;;;;;;5.58;75.25;95945.19;4992421;28;20243;-82
2021/03/16 09:48:46;;;;;;;13.87;9.53;;;;;;;5.63;75.77;95940.47;4991351;28;20223;-82
2021/03/16 09:51:14;;;;;;;8.13;4.30;;;;;;;5.56;75.66;95959.88;4991504;28;20231;-86
2021/03/16 09:53:46;;;;;;;10.27;3.60;;;;;;;5.58;75.72;95957.94;4992385;28;20594;-83
2021/03/16 09:56:13;;;;;;;6.20;3.60;;;;;;;5.54;76.07;95957.44;4992442;28;20231;-86
2021/03/16 09:58:39;;;;;;;6.23;3.50;;;;;;;5.47;73.74;95956.34;4992676;28;20231;-83
2021/03/16 10:01:05;;;;;;;5.90;3.47;;;;;;;5.48;73.94;95952.06;4992436;28;20363;-85
2021/03/16 10:03:31;;;;;;;6.27;3.53;;;;;;;5.44;74.15;95960.94;4991775;28;20230;-84
2021/03/16 10:06:05;;;;;;;4.87;3.17;;;;;;;5.39;75.11;95963.06;4992155;28;20207;-84
2021/03/16 10:08:31;;;;;;;5.23;3.13;;;;;;;5.30;75.83;95966.44;4992172;28;20219;-83
2021/03/16 10:10:58;;;;;;;6.27;3.17;;;;;;;5.32;74.46;95969.69;4991921;28;20734;-83
2021/03/16 10:13:33;;;;;;;6.43;3.27;;;;;;;5.19;74.33;95972.50;5008068;28;20227;-83
2021/03/16 10:16:07;;;;;;;6.23;3.13;;;;;;;5.01;74.20;95967.22;5011411;28;20635;-85
2021/03/16 10:18:37;;;;;;;6.97;2.80;;;;;;;5.02;74.37;95968.03;5011554;28;20228;-85
2021/03/16 10:21:03;;;;;;;7.13;3.00;;;;;;;5.03;73.66;95959.44;5011558;28;20223;-84
2021/03/16 10:23:31;;;;;;;6.17;2.90;;;;;;;5.08;72.90;95968.31;5012208;28;20222;-85
2021/03/16 10:26:00;;;;;;;7.77;3.20;;;;;;;5.14;74.44;95967.00;5011378;28;20226;-85
2021/03/16 10:28:32;;;;;;;4.03;2.43;;;;;;;5.28;73.46;95955.56;5011139;28;20238;-85
2021/03/16 10:31:10;;;;;;;5.10;2.77;;;;;;;5.36;71.13;95953.16;5012041;28;20233;-84
2021/03/16 10:33:36;;;;;;;5.43;2.70;;;;;;;5.47;70.89;95956.34;5012236;28;20230;-86
2021/03/16 10:36:05;;;;;;;3.80;2.73;;;;;;;5.64;72.00;95952.31;5011707;28;20211;-86
2021/03/16 10:38:31;;;;;;;6.30;2.60;;;;;;;5.81;70.25;95953.34;5011604;28;20207;-86
2021/03/16 10:40:58;;;;;;;4.87;2.93;;;;;;;5.94;71.06;95955.66;5009645;28;20238;-85
2021/03/16 10:43:24;;;;;;;4.70;3.03;;;;;;;5.90;67.64;95952.56;5011629;28;20230;-84
2021/03/16 10:45:52;;;;;;;4.97;2.80;;;;;;;5.77;66.71;95954.59;5010737;28;20283;-85
2021/03/16 10:48:18;;;;;;;4.07;2.80;;;;;;;5.78;66.64;95945.94;5011131;28;20242;-84
2021/03/16 10:50:44;;;;;;;5.63;2.47;;;;;;;5.88;67.29;95954.41;5010914;28;20249;-84
2021/03/16 10:53:10;;;;;;;5.57;2.80;;;;;;;6.01;66.74;95951.56;5010961;28;20313;-84
2021/03/16 10:55:36;;;;;;;5.03;2.63;;;;;;;6.33;66.26;95946.09;5011026;28;20280;-85
2021/03/16 10:58:03;;;;;;;4.30;2.60;;;;;;;6.43;66.82;95957.88;5010685;28;20262;-85
2021/03/16 11:00:29;;;;;;;4.97;2.53;;;;;;;6.40;64.45;95958.16;5009787;28;20785;-86
2021/03/16 11:02:55;;;;;;;6.03;2.60;;;;;;;6.28;62.92;95955.94;5011087;28;20227;-86
2021/03/16 11:05:21;;;;;;;6.37;2.40;;;;;;;6.36;63.25;95959.38;5009886;28;20235;-85
2021/03/16 11:07:47;;;;;;;3.57;2.10;;;;;;;6.32;62.56;95957.28;5009923;28;20231;-85
2021/03/16 11:10:15;;;;;;;5.37;2.73;;;;;;;6.18;61.94;95956.75;5011896;28;20226;-84
2021/03/16 11:12:41;;;;;;;4.70;2.17;;;;;;;6.14;62.48;95955.47;5012190;28;20226;-86
2021/03/16 11:15:09;;;;;;;2.63;1.80;;;;;;;6.12;63.58;95943.75;5012118;28;20245;-86
2021/03/16 11:17:35;;;;;;;3.40;2.00;;;;;;;6.06;60.87;95955.34;5012642;28;20210;-83
2021/03/16 11:20:01;;;;;;;3.73;1.83;;;;;;;6.07;62.02;95949.28;5010932;28;20230;-84
2021/03/16 11:22:27;;;;;;;2.80;1.80;;;;;;;6.22;62.32;95955.53;5011479;28;20310;-84
2021/03/16 11:24:53;;;;;;;5.37;2.10;;;;;;;6.32;61.06;95955.53;5012569;28;20225;-85
2021/03/16 11:27:19;;;;;;;4.57;1.63;;;;;;;6.43;61.25;95954.50;5013742;28;20749;-85
2021/03/16 11:29:45;;;;;;;4.53;1.97;;;;;;;6.49;60.44;95952.22;5016474;28;20843;-85
2021/03/16 11:32:12;;;;;;;5.47;2.03;;;;;;;6.60;59.94;95948.63;5016279;28;20296;-85
2021/03/16 11:34:38;;;;;;;4.27;2.10;;;;;;;6.71;59.47;95953.56;5016285;28;20246;-84
2021/03/16 11:37:04;;;;;;;3.97;2.13;;;;;;;6.84;59.72;95960.91;5015807;28;20222;-85
2021/03/16 11:39:30;;;;;;;4.17;1.90;;;;;;;6.81;58.88;95956.88;5015763;28;20230;-85
2021/03/16 11:41:56;;;;;;;3.40;1.73;;;;;;;6.80;57.39;95959.56;5016549;28;20225;-85
2021/03/16 11:44:22;;;;;;;3.70;1.97;;;;;;;6.65;56.71;95946.47;5015553;28;20261;-85